Time;durP1;ratioP1;P1;durP2;ratioP2;P2;SDS_P1;SDS_P2;PMS_P1;PMS_P2;Temp;Humidity;BMP_temperature;BMP_pressure;BME280_temperature;BME280_humidity;BME280_pressure;Samples;Min_cycle;Max_cycle;Signal;HPM_P1;HPM_P2
2021/05/31 00:00:40;;;;;;;;;1.50;1.50;;;;;;;;3558868;39;113520;-69
2021/05/31 00:03:06;;;;;;;;;2.75;1.75;;;;;;;;3557511;39;115171;-69
2021/05/31 00:05:33;;;;;;;;;1.00;1.00;;;;;;;;3558646;39;112542;-70
2021/05/31 00:07:59;;;;;;;;;1.25;1.25;;;;;;;;3558474;39;113251;-69
2021/05/31 00:10:26;;;;;;;;;2.00;2.00;;;;;;;;3557068;39;114089;-69
2021/05/31 00:12:52;;;;;;;;;3.00;1.00;;;;;;;;3558087;39;112253;-69
2021/05/31 00:15:18;;;;;;;;;2.00;2.00;;;;;;;;3558482;39;113277;-70
2021/05/31 00:17:44;;;;;;;;;1.00;1.00;;;;;;;;3562188;39;113856;-69
2021/05/31 00:20:11;;;;;;;;;2.75;2.00;;;;;;;;3553802;39;112257;-70
2021/05/31 00:22:39;;;;;;;;;2.25;2.00;;;;;;;;3555646;39;113839;-69
2021/05/31 00:25:05;;;;;;;;;2.00;2.00;;;;;;;;3559625;39;112368;-69
2021/05/31 00:27:31;;;;;;;;;3.00;1.00;;;;;;;;3558910;39;113409;-69
2021/05/31 00:29:57;;;;;;;;;2.50;2.50;;;;;;;;3558820;39;113811;-69
2021/05/31 00:32:23;;;;;;;;;3.00;1.75;;;;;;;;3559402;39;112051;-69
2021/05/31 00:34:49;;;;;;;;;3.25;2.00;;;;;;;;3558958;39;113279;-69
2021/05/31 00:37:16;;;;;;;;;1.00;1.00;;;;;;;;3559249;39;113864;-69
2021/05/31 00:39:43;;;;;;;;;3.25;2.00;;;;;;;;3561204;39;111851;-69
2021/05/31 00:42:09;;;;;;;;;2.00;2.00;;;;;;;;3559679;39;114324;-69
2021/05/31 00:44:35;;;;;;;;;2.00;2.00;;;;;;;;3559996;39;112350;-68
2021/05/31 00:47:01;;;;;;;;;2.00;2.00;;;;;;;;3558461;39;113830;-69
2021/05/31 00:49:28;;;;;;;;;2.00;2.00;;;;;;;;3559067;39;113793;-69
2021/05/31 00:51:55;;;;;;;;;2.00;2.00;;;;;;;;3559262;39;112044;-68
2021/05/31 00:54:21;;;;;;;;;2.00;2.00;;;;;;;;3558924;39;113861;-69
2021/05/31 00:56:48;;;;;;;;;1.25;1.25;;;;;;;;3559307;39;114028;-69
2021/05/31 00:59:14;;;;;;;;;1.75;1.75;;;;;;;;3558348;39;111908;-69
2021/05/31 01:01:41;;;;;;;;;3.00;1.00;;;;;;;;3562271;39;113736;-69
2021/05/31 01:04:07;;;;;;;;;3.00;2.00;;;;;;;;3555164;39;111823;-69
2021/05/31 01:06:34;;;;;;;;;1.25;1.25;;;;;;;;3559664;39;113298;-68
2021/05/31 01:09:05;;;;;;;;;2.00;2.00;;;;;;;;3557983;39;113820;-69
2021/05/31 01:11:32;;;;;;;;;3.00;2.00;;;;;;;;3559623;39;111783;-69
2021/05/31 01:14:07;;;;;;;;;1.50;1.50;;;;;;;;3558887;39;113207;-69
2021/05/31 01:16:35;;;;;;;;;3.00;2.00;;;;;;;;3559171;39;113845;-70
2021/05/31 01:19:04;;;;;;;;;2.00;2.00;;;;;;;;3554455;39;112993;-69
2021/05/31 01:21:36;;;;;;;;;3.50;2.00;;;;;;;;3558203;39;112934;-68
2021/05/31 01:24:03;;;;;;;;;2.25;2.25;;;;;;;;3561616;39;114091;-69
2021/05/31 01:26:34;;;;;;;;;2.00;2.00;;;;;;;;3559919;39;113419;-69
2021/05/31 01:29:04;;;;;;;;;1.00;1.00;;;;;;;;3557848;39;113929;-68
2021/05/31 01:31:37;;;;;;;;;3.00;3.00;;;;;;;;3559413;39;111837;-69
2021/05/31 01:34:05;;;;;;;;;4.00;2.25;;;;;;;;3555884;39;111727;-70
2021/05/31 01:36:32;;;;;;;;;3.00;2.00;;;;;;;;3557538;39;113769;-69
2021/05/31 01:38:59;;;;;;;;;1.00;1.00;;;;;;;;3559264;39;112876;-69
2021/05/31 01:41:26;;;;;;;;;2.75;1.50;;;;;;;;3558671;39;113613;-69
2021/05/31 01:43:52;;;;;;;;;3.00;1.75;;;;;;;;3558278;39;113830;-69
2021/05/31 01:46:20;;;;;;;;;3.00;2.00;;;;;;;;3561690;39;112024;-69
2021/05/31 01:48:47;;;;;;;;;2.00;2.00;;;;;;;;3557755;39;113729;-69
2021/05/31 01:51:14;;;;;;;;;2.75;2.75;;;;;;;;3559297;39;112782;-70
2021/05/31 01:53:41;;;;;;;;;2.00;2.00;;;;;;;;3555905;39;113882;-69
2021/05/31 01:56:08;;;;;;;;;1.00;1.00;;;;;;;;3555196;39;113823;-69
2021/05/31 01:58:34;;;;;;;;;2.00;2.00;;;;;;;;3559541;39;111925;-69
2021/05/31 02:01:00;;;;;;;;;2.00;2.00;;;;;;;;3553247;39;114255;-69
2021/05/31 02:03:28;;;;;;;;;2.00;2.00;;;;;;;;3558457;39;113967;-68
2021/05/31 02:05:55;;;;;;;;;2.00;2.00;;;;;;;;3561257;39;111696;-68
2021/05/31 02:08:21;;;;;;;;;1.50;1.25;;;;;;;;3554337;39;113478;-68
2021/05/31 02:10:47;;;;;;;;;1.00;1.00;;;;;;;;3558981;39;111827;-68
2021/05/31 02:13:15;;;;;;;;;2.00;2.00;;;;;;;;3557786;39;113456;-69
2021/05/31 02:15:45;;;;;;;;;2.50;1.00;;;;;;;;3558869;39;114451;-69
2021/05/31 02:18:14;;;;;;;;;2.00;2.00;;;;;;;;3557737;39;112215;-69
2021/05/31 02:20:44;;;;;;;;;4.00;2.50;;;;;;;;3557397;39;113610;-69
2021/05/31 02:23:11;;;;;;;;;2.00;2.00;;;;;;;;3555198;39;113936;-69
2021/05/31 02:25:38;;;;;;;;;2.00;2.00;;;;;;;;3559405;39;112094;-69
2021/05/31 02:28:05;;;;;;;;;4.00;2.75;;;;;;;;3559762;39;112971;-69
2021/05/31 02:30:31;;;;;;;;;2.00;2.00;;;;;;;;3558976;39;111962;-69
2021/05/31 02:32:58;;;;;;;;;1.00;1.00;;;;;;;;3557946;39;113244;-69
2021/05/31 02:35:25;;;;;;;;;4.00;3.00;;;;;;;;3559589;39;114524;-69
2021/05/31 02:37:53;;;;;;;;;2.75;2.00;;;;;;;;3559832;39;112635;-69
2021/05/31 02:40:20;;;;;;;;;4.00;2.00;;;;;;;;3559560;39;113195;-69
2021/05/31 02:42:47;;;;;;;;;2.00;2.00;;;;;;;;3559736;39;113802;-68
2021/05/31 02:45:13;;;;;;;;;2.25;2.25;;;;;;;;3559047;39;112323;-70
2021/05/31 02:47:39;;;;;;;;;2.75;2.75;;;;;;;;3560716;39;113472;-69
2021/05/31 02:50:06;;;;;;;;;3.25;2.00;;;;;;;;3558916;39;114300;-69
2021/05/31 02:52:32;;;;;;;;;3.00;3.00;;;;;;;;3560517;39;113250;-69
2021/05/31 02:54:59;;;;;;;;;2.00;2.00;;;;;;;;3558773;39;113771;-69
2021/05/31 02:57:26;;;;;;;;;2.00;2.00;;;;;;;;3560048;39;111816;-70
2021/05/31 02:59:52;;;;;;;;;2.00;2.00;;;;;;;;3559668;39;113314;-69
2021/05/31 03:02:19;;;;;;;;;2.00;2.00;;;;;;;;3558984;39;113911;-69
2021/05/31 03:04:45;;;;;;;;;2.50;2.50;;;;;;;;3560220;39;111860;-70
2021/05/31 03:07:11;;;;;;;;;2.00;2.00;;;;;;;;3558615;39;113471;-70
2021/05/31 03:09:37;;;;;;;;;2.00;2.00;;;;;;;;3559987;39;113801;-74
2021/05/31 03:12:05;;;;;;;;;1.50;1.50;;;;;;;;3560729;39;112659;-71
2021/05/31 03:14:31;;;;;;;;;1.00;1.00;;;;;;;;3558632;39;113874;-71
2021/05/31 03:16:57;;;;;;;;;3.00;3.00;;;;;;;;3557958;39;112372;-69
2021/05/31 03:19:23;;;;;;;;;2.00;2.00;;;;;;;;3557639;39;113335;-72
2021/05/31 03:21:49;;;;;;;;;3.50;3.00;;;;;;;;3557368;39;114235;-71
2021/05/31 03:24:15;;;;;;;;;2.50;2.50;;;;;;;;3559034;39;111904;-71
2021/05/31 03:26:41;;;;;;;;;1.25;1.25;;;;;;;;3559956;39;113196;-71
2021/05/31 03:29:08;;;;;;;;;2.00;2.00;;;;;;;;3559028;39;113757;-71
2021/05/31 03:31:35;;;;;;;;;2.00;2.00;;;;;;;;3514046;39;112842;-72
2021/05/31 03:34:01;;;;;;;;;3.00;2.75;;;;;;;;3541386;39;113352;-71
2021/05/31 03:36:27;;;;;;;;;2.00;2.00;;;;;;;;3539240;39;112228;-71
2021/05/31 03:38:53;;;;;;;;;2.50;2.00;;;;;;;;3539294;39;113304;-71
2021/05/31 03:41:19;;;;;;;;;4.00;3.00;;;;;;;;3539170;39;114275;-71
2021/05/31 03:43:45;;;;;;;;;2.75;2.00;;;;;;;;3539386;39;113220;-71
2021/05/31 03:46:12;;;;;;;;;3.75;3.75;;;;;;;;3536030;39;113848;-71
2021/05/31 03:48:38;;;;;;;;;4.50;3.50;;;;;;;;3537489;39;114057;-72
2021/05/31 03:51:11;;;;;;;;;5.00;4.00;;;;;;;;3537773;39;111972;-71
2021/05/31 03:53:38;;;;;;;;;3.00;3.00;;;;;;;;3539318;39;113270;-71
2021/05/31 03:56:04;;;;;;;;;2.00;2.00;;;;;;;;3536750;39;112819;-70
2021/05/31 03:58:30;;;;;;;;;3.50;3.00;;;;;;;;3539809;39;113409;-72
2021/05/31 04:00:56;;;;;;;;;3.00;3.00;;;;;;;;3538611;39;113875;-72
2021/05/31 04:03:24;;;;;;;;;5.00;5.00;;;;;;;;3539153;39;112010;-73
2021/05/31 04:06:01;;;;;;;;;3.00;3.00;;;;;;;;3539527;39;113635;-72
2021/05/31 04:13:55;;;;;;;;;4.75;4.00;;;;;;;;3539194;39;112077;-73
2021/05/31 04:16:22;;;;;;;;;3.75;3.50;;;;;;;;3540138;39;114253;-73
2021/05/31 04:18:49;;;;;;;;;4.00;4.00;;;;;;;;3538756;39;113843;-72
2021/05/31 04:21:15;;;;;;;;;3.00;3.00;;;;;;;;3538579;39;113912;-71
2021/05/31 04:23:41;;;;;;;;;5.00;4.00;;;;;;;;3538869;39;112703;-71
2021/05/31 04:26:07;;;;;;;;;4.00;3.00;;;;;;;;3538924;39;112645;-71
2021/05/31 04:28:33;;;;;;;;;4.75;3.00;;;;;;;;3538935;39;114352;-72
2021/05/31 04:31:00;;;;;;;;;3.75;3.25;;;;;;;;3538136;39;112073;-72
2021/05/31 04:33:26;;;;;;;;;3.00;3.00;;;;;;;;3539415;39;113195;-73
2021/05/31 04:35:53;;;;;;;;;4.00;3.50;;;;;;;;3538791;39;114182;-73
2021/05/31 04:38:19;;;;;;;;;3.00;3.00;;;;;;;;3541185;39;111950;-75
2021/05/31 04:40:45;;;;;;;;;3.00;3.00;;;;;;;;3539144;39;114075;-71
2021/05/31 04:43:11;;;;;;;;;4.00;4.00;;;;;;;;3538098;39;112169;-73
2021/05/31 04:45:37;;;;;;;;;4.00;3.00;;;;;;;;3540651;39;113794;-72
2021/05/31 04:48:04;;;;;;;;;4.25;4.00;;;;;;;;3537889;39;113977;-74
2021/05/31 04:50:30;;;;;;;;;3.00;3.00;;;;;;;;3539085;39;111934;-73
2021/05/31 04:52:57;;;;;;;;;4.50;4.50;;;;;;;;3538926;39;113323;-73
2021/05/31 04:55:23;;;;;;;;;5.00;5.00;;;;;;;;3538242;39;114772;-75
2021/05/31 04:57:50;;;;;;;;;4.00;3.00;;;;;;;;3538837;39;111868;-70
2021/05/31 05:00:16;;;;;;;;;4.00;3.25;;;;;;;;3540246;39;113357;-72
2021/05/31 05:02:42;;;;;;;;;5.00;4.50;;;;;;;;3539785;39;111817;-74
2021/05/31 05:05:09;;;;;;;;;5.00;3.50;;;;;;;;3535880;39;112271;-71
2021/05/31 05:07:35;;;;;;;;;3.00;3.00;;;;;;;;3539014;39;114048;-74
2021/05/31 05:10:03;;;;;;;;;4.00;4.00;;;;;;;;3538367;39;112522;-72
2021/05/31 05:12:29;;;;;;;;;4.00;4.00;;;;;;;;3539044;39;113405;-72
2021/05/31 05:14:55;;;;;;;;;5.00;5.00;;;;;;;;3538314;39;113722;-72
2021/05/31 05:17:21;;;;;;;;;3.25;2.75;;;;;;;;3538474;39;111889;-73
2021/05/31 05:19:47;;;;;;;;;3.75;3.75;;;;;;;;3539362;39;113202;-72
2021/05/31 05:22:14;;;;;;;;;3.00;3.00;;;;;;;;3540136;39;113942;-71
2021/05/31 05:24:40;;;;;;;;;2.25;2.25;;;;;;;;3539840;39;113418;-72
2021/05/31 05:27:07;;;;;;;;;3.00;3.00;;;;;;;;3537209;39;113619;-71
2021/05/31 05:29:33;;;;;;;;;3.00;3.00;;;;;;;;3539341;39;111999;-68
2021/05/31 05:32:00;;;;;;;;;2.75;2.75;;;;;;;;3538388;39;113204;-69
2021/05/31 05:34:26;;;;;;;;;3.00;3.00;;;;;;;;3538170;39;114130;-70
2021/05/31 05:36:55;;;;;;;;;5.00;3.50;;;;;;;;3537533;39;112437;-70
2021/05/31 05:39:47;;;;;;;;;3.00;3.00;;;;;;;;3538918;39;114233;-71
2021/05/31 05:42:27;;;;;;;;;4.00;3.00;;;;;;;;3538799;39;114078;-70
2021/05/31 05:47:50;;;;;;;;;6.75;4.50;;;;;;;;3569841;39;112030;-69
2021/05/31 05:50:17;;;;;;;;;7.50;6.00;;;;;;;;3556538;39;113947;-70
2021/05/31 05:52:43;;;;;;;;;6.25;5.25;;;;;;;;3555628;39;111990;-70
2021/05/31 05:55:11;;;;;;;;;5.00;4.75;;;;;;;;3557275;39;113582;-71
2021/05/31 05:57:38;;;;;;;;;4.25;4.25;;;;;;;;3555280;39;113828;-70
2021/05/31 06:00:06;;;;;;;;;5.00;4.25;;;;;;;;3556999;39;112340;-70
2021/05/31 06:02:32;;;;;;;;;4.50;4.25;;;;;;;;3559611;39;113109;-70
2021/05/31 06:05:00;;;;;;;;;4.25;3.75;;;;;;;;3552298;39;112532;-70
2021/05/31 06:07:27;;;;;;;;;6.25;5.00;;;;;;;;3559207;39;112059;-70
2021/05/31 06:09:53;;;;;;;;;4.00;4.00;;;;;;;;3556043;39;113905;-71
2021/05/31 06:12:19;;;;;;;;;6.00;4.75;;;;;;;;3555881;39;112700;-70
2021/05/31 06:14:45;;;;;;;;;5.75;4.75;;;;;;;;3556937;39;113566;-71
2021/05/31 06:17:11;;;;;;;;;6.25;4.00;;;;;;;;3555319;39;113980;-70
2021/05/31 06:19:37;;;;;;;;;6.25;5.00;;;;;;;;3555885;39;111823;-72
2021/05/31 06:22:05;;;;;;;;;5.75;5.00;;;;;;;;3556768;39;113502;-72
2021/05/31 06:24:31;;;;;;;;;6.75;5.00;;;;;;;;3555356;39;114156;-72
2021/05/31 06:26:57;;;;;;;;;6.75;4.75;;;;;;;;3555587;39;111967;-71
2021/05/31 06:29:24;;;;;;;;;5.00;4.75;;;;;;;;3556482;39;114442;-70
2021/05/31 06:31:50;;;;;;;;;5.75;4.50;;;;;;;;3557919;39;112167;-76
2021/05/31 06:34:16;;;;;;;;;4.75;4.75;;;;;;;;3555768;39;113641;-75
2021/05/31 06:36:42;;;;;;;;;3.75;3.50;;;;;;;;3558132;39;113845;-74
2021/05/31 06:39:11;;;;;;;;;4.00;4.00;;;;;;;;3556489;39;112123;-73
2021/05/31 06:41:37;;;;;;;;;5.25;5.25;;;;;;;;3554975;39;113420;-73
2021/05/31 06:44:04;;;;;;;;;5.00;5.00;;;;;;;;3556768;39;113969;-73
2021/05/31 06:46:30;;;;;;;;;5.75;4.00;;;;;;;;3555532;39;111962;-76
2021/05/31 06:48:56;;;;;;;;;5.00;4.75;;;;;;;;3559036;39;113280;-74
2021/05/31 06:51:22;;;;;;;;;7.00;6.00;;;;;;;;3557321;39;113854;-76
2021/05/31 06:53:49;;;;;;;;;5.00;4.00;;;;;;;;3556807;39;113170;-77
2021/05/31 06:56:19;;;;;;;;;5.00;5.00;;;;;;;;3588590;22;114012;-69
2021/05/31 06:58:45;;;;;;;;;5.00;5.00;;;;;;;;3538269;39;112202;-70
2021/05/31 07:01:11;;;;;;;;;6.00;6.00;;;;;;;;3538395;39;113347;-69
2021/05/31 07:03:37;;;;;;;;;5.50;5.00;;;;;;;;3536397;39;113944;-69
2021/05/31 07:06:03;;;;;;;;;5.00;5.00;;;;;;;;3537036;39;112154;-71
2021/05/31 07:08:30;;;;;;;;;10.50;9.00;;;;;;;;3537451;39;115648;-71
2021/05/31 07:10:57;;;;;;;;;6.25;6.00;;;;;;;;3539186;39;114295;-70
2021/05/31 07:13:25;;;;;;;;;10.00;5.75;;;;;;;;3540054;39;111933;-68
2021/05/31 07:15:52;;;;;;;;;6.00;6.00;;;;;;;;3536466;39;113855;-68
2021/05/31 07:18:19;;;;;;;;;8.00;7.75;;;;;;;;3539175;39;112993;-70
2021/05/31 07:20:46;;;;;;;;;7.25;7.25;;;;;;;;3536476;39;113150;-70
2021/05/31 07:23:12;;;;;;;;;5.75;5.50;;;;;;;;3537914;39;113806;-70
2021/05/31 07:25:38;;;;;;;;;4.00;4.00;;;;;;;;3540286;39;111855;-69
2021/05/31 07:28:05;;;;;;;;;5.00;4.00;;;;;;;;3538728;39;113002;-70
2021/05/31 07:30:32;;;;;;;;;4.25;4.25;;;;;;;;3539294;39;113799;-70
2021/05/31 07:32:58;;;;;;;;;4.25;3.75;;;;;;;;3538186;39;112250;-71
2021/05/31 07:35:24;;;;;;;;;4.00;4.00;;;;;;;;3541645;39;114137;-71
2021/05/31 07:37:50;;;;;;;;;4.50;3.00;;;;;;;;3539465;39;111910;-72
2021/05/31 07:40:17;;;;;;;;;3.00;3.00;;;;;;;;3538443;39;113868;-76
2021/05/31 07:42:43;;;;;;;;;3.50;3.50;;;;;;;;3539514;39;113757;-73
2021/05/31 07:45:11;;;;;;;;;4.00;4.00;;;;;;;;3538281;39;111911;-70
2021/05/31 07:47:38;;;;;;;;;3.00;3.00;;;;;;;;3538657;39;113696;-71
2021/05/31 07:50:05;;;;;;;;;3.25;3.25;;;;;;;;3539235;39;113864;-72
2021/05/31 07:52:32;;;;;;;;;3.00;3.00;;;;;;;;3538950;39;112836;-71
2021/05/31 07:54:58;;;;;;;;;5.00;4.00;;;;;;;;3538471;39;113507;-70
2021/05/31 07:57:24;;;;;;;;;5.75;5.75;;;;;;;;3541123;39;111910;-71
2021/05/31 07:59:51;;;;;;;;;8.00;8.00;;;;;;;;3538988;39;113443;-69
2021/05/31 08:02:17;;;;;;;;;7.00;6.00;;;;;;;;3536590;39;114040;-70
2021/05/31 08:04:45;;;;;;;;;7.50;7.50;;;;;;;;3539403;39;112783;-72
2021/05/31 08:07:12;;;;;;;;;10.50;8.00;;;;;;;;3539706;39;113807;-67
2021/05/31 08:09:38;;;;;;;;;13.50;10.25;;;;;;;;3534997;39;112873;-70
2021/05/31 08:12:05;;;;;;;;;10.00;10.00;;;;;;;;3539055;39;113522;-70
2021/05/31 08:14:31;;;;;;;;;10.75;9.75;;;;;;;;3538149;39;113272;-68
2021/05/31 08:16:57;;;;;;;;;11.25;8.25;;;;;;;;3541173;39;113777;-73
2021/05/31 08:19:25;;;;;;;;;7.25;7.00;;;;;;;;3537781;39;113874;-74
2021/05/31 08:21:53;;;;;;;;;11.00;8.50;;;;;;;;3538439;39;113865;-72
2021/05/31 08:24:19;;;;;;;;;8.00;7.00;;;;;;;;3538344;39;112368;-69
2021/05/31 08:26:45;;;;;;;;;5.75;5.75;;;;;;;;3540425;39;113325;-70
2021/05/31 08:29:12;;;;;;;;;6.25;6.25;;;;;;;;3537800;39;114257;-70
2021/05/31 08:31:38;;;;;;;;;6.67;6.67;;;;;;;;3539487;39;113469;-70
2021/05/31 08:34:04;;;;;;;;;7.00;7.00;;;;;;;;3537987;39;113142;-70
2021/05/31 08:36:31;;;;;;;;;7.67;7.00;;;;;;;;3538817;39;113862;-68
2021/05/31 08:38:58;;;;;;;;;5.33;4.33;;;;;;;;3541800;39;111781;-71
2021/05/31 08:41:25;;;;;;;;;6.33;6.00;;;;;;;;3538267;39;113940;-70
2021/05/31 08:43:51;;;;;;;;;5.00;5.00;;;;;;;;3538802;39;112444;-70
2021/05/31 08:46:17;;;;;;;;;5.00;4.33;;;;;;;;3536934;39;112328;-70
2021/05/31 08:48:43;;;;;;;;;4.00;4.00;;;;;;;;3539232;39;113846;-70
2021/05/31 08:51:09;;;;;;;;;5.00;5.00;;;;;;;;3535564;39;112203;-70
2021/05/31 08:53:36;;;;;;;;;9.00;9.00;;;;;;;;3539051;39;113498;-73
2021/05/31 08:56:03;;;;;;;;;7.33;6.00;;;;;;;;3537958;39;114461;-71
2021/05/31 08:58:30;;;;;;;;;4.33;4.33;;;;;;;;3538894;39;111960;-71
2021/05/31 09:00:56;;;;;;;;;5.00;5.00;;;;;;;;3541036;39;113323;-71
2021/05/31 09:03:22;;;;;;;;;5.67;5.00;;;;;;;;3537409;39;112135;-72
2021/05/31 09:05:49;;;;;;;;;4.00;4.00;;;;;;;;3538546;39;113386;-71
2021/05/31 09:08:16;;;;;;;;;3.00;3.00;;;;;;;;3538905;39;113492;-72
2021/05/31 09:10:44;;;;;;;;;3.33;3.33;;;;;;;;3535392;39;112048;-71
2021/05/31 09:13:13;;;;;;;;;4.33;3.67;;;;;;;;3536137;39;112498;-73
2021/05/31 09:15:44;;;;;;;;;7.00;7.00;;;;;;;;3538414;39;114228;-71
2021/05/31 09:18:10;;;;;;;;;7.00;4.67;;;;;;;;3537956;39;112013;-70
2021/05/31 09:20:36;;;;;;;;;5.00;5.00;;;;;;;;3538790;39;113256;-70
2021/05/31 09:23:02;;;;;;;;;5.67;5.67;;;;;;;;3536965;39;112936;-71
2021/05/31 09:25:30;;;;;;;;;5.00;4.00;;;;;;;;3536891;39;113179;-71
2021/05/31 09:27:58;;;;;;;;;5.67;5.67;;;;;;;;3535013;39;112991;-70
2021/05/31 09:30:48;;;;;;;;;5.00;5.00;;;;;;;;3535458;39;112543;-70
2021/05/31 09:33:16;;;;;;;;;5.00;5.00;;;;;;;;3526865;39;113540;-69
2021/05/31 09:35:43;;;;;;;;;5.67;4.67;;;;;;;;3538200;39;113198;-69
2021/05/31 09:38:10;;;;;;;;;5.33;4.00;;;;;;;;3532661;39;113703;-70
2021/05/31 09:40:36;;;;;;;;;4.00;4.00;;;;;;;;3537904;39;113267;-69
2021/05/31 09:43:04;;;;;;;;;4.00;4.00;;;;;;;;3538015;39;113736;-68
2021/05/31 09:45:31;;;;;;;;;3.00;3.00;;;;;;;;3541329;39;112130;-77
2021/05/31 09:48:01;;;;;;;;;4.33;3.67;;;;;;;;3537892;39;114468;-76
2021/05/31 09:50:29;;;;;;;;;4.00;4.00;;;;;;;;3538757;39;112383;-77
2021/05/31 09:53:04;;;;;;;;;4.67;4.67;;;;;;;;3538975;39;113587;-78
2021/05/31 09:55:40;;;;;;;;;9.33;9.00;;;;;;;;3538155;39;113816;-81
2021/05/31 09:58:07;;;;;;;;;5.00;5.00;;;;;;;;3537907;39;111801;-75
2021/05/31 10:00:33;;;;;;;;;5.00;4.00;;;;;;;;3538618;39;113134;-67
2021/05/31 10:03:12;;;;;;;;;6.00;6.00;;;;;;;;3537042;39;113969;-67
2021/05/31 10:05:44;;;;;;;;;3.00;3.00;;;;;;;;3539794;39;112241;-69
2021/05/31 10:08:40;;;;;;;;;6.33;4.00;;;;;;;;3538078;39;113859;-67
2021/05/31 10:11:03;;;;;;;;;3.67;3.67;;;;;;;;3537718;39;111874;-69
2021/05/31 10:13:29;;;;;;;;;7.67;5.00;;;;;;;;3538362;39;113274;-68
2021/05/31 10:15:57;;;;;;;;;3.33;3.33;;;;;;;;3537212;39;113984;-67
2021/05/31 10:18:23;;;;;;;;;6.00;4.00;;;;;;;;3538746;39;111966;-68
2021/05/31 10:20:51;;;;;;;;;3.67;3.67;;;;;;;;3537369;39;113257;-67
2021/05/31 10:23:17;;;;;;;;;3.25;3.25;;;;;;;;3536775;39;113956;-68
2021/05/31 10:25:46;;;;;;;;;6.50;6.00;;;;;;;;3538819;39;112373;-66
2021/05/31 10:28:14;;;;;;;;;5.00;5.00;;;;;;;;3539452;39;113682;-69
2021/05/31 10:30:41;;;;;;;;;3.00;2.25;;;;;;;;3538468;39;112684;-68
2021/05/31 10:33:11;;;;;;;;;7.00;6.00;;;;;;;;3538343;39;113188;-68
2021/05/31 10:35:37;;;;;;;;;5.00;5.00;;;;;;;;3538373;39;113060;-67
2021/05/31 10:38:10;;;;;;;;;4.00;4.00;;;;;;;;3531252;39;112202;-75
2021/05/31 10:40:38;;;;;;;;;6.00;5.00;;;;;;;;3539588;39;113284;-75
2021/05/31 10:43:05;;;;;;;;;4.50;4.00;;;;;;;;3538844;39;113761;-74
2021/05/31 10:45:32;;;;;;;;;5.25;4.75;;;;;;;;3537260;39;111853;-75
2021/05/31 10:47:59;;;;;;;;;5.25;5.25;;;;;;;;3539861;39;113558;-75
2021/05/31 10:50:29;;;;;;;;;5.25;5.00;;;;;;;;3542044;39;114026;-75
2021/05/31 10:52:56;;;;;;;;;5.75;5.00;;;;;;;;3539232;39;113684;-78
2021/05/31 10:55:25;;;;;;;;;5.50;5.50;;;;;;;;3539917;39;114142;-75
2021/05/31 10:57:52;;;;;;;;;6.50;4.00;;;;;;;;3538725;39;111862;-77
2021/05/31 11:00:22;;;;;;;;;4.00;4.00;;;;;;;;3540677;39;113104;-79
2021/05/31 11:02:48;;;;;;;;;4.25;4.25;;;;;;;;3536355;39;114213;-78
2021/05/31 11:05:14;;;;;;;;;4.25;4.00;;;;;;;;3540297;39;112263;-77
2021/05/31 11:07:41;;;;;;;;;4.00;4.00;;;;;;;;3539244;39;113847;-77
2021/05/31 11:10:17;;;;;;;;;4.75;4.00;;;;;;;;3539192;39;113888;-77
2021/05/31 11:12:45;;;;;;;;;4.25;4.25;;;;;;;;3540902;39;111876;-76
2021/05/31 11:15:12;;;;;;;;;4.75;4.75;;;;;;;;3539645;39;113862;-77
2021/05/31 11:17:48;;;;;;;;;3.00;2.75;;;;;;;;3539478;39;111852;-81
2021/05/31 11:20:14;;;;;;;;;3.25;3.25;;;;;;;;3540132;39;113380;-80
2021/05/31 11:22:50;;;;;;;;;2.00;2.00;;;;;;;;3538489;39;114072;-79
2021/05/31 11:25:17;;;;;;;;;2.75;2.00;;;;;;;;3540264;39;112640;-77
2021/05/31 11:27:44;;;;;;;;;3.00;2.00;;;;;;;;3539109;39;113201;-78
2021/05/31 11:30:12;;;;;;;;;2.00;2.00;;;;;;;;3539113;39;113882;-78
2021/05/31 11:32:38;;;;;;;;;4.00;3.00;;;;;;;;3539442;39;112214;-78
2021/05/31 11:35:06;;;;;;;;;6.00;2.00;;;;;;;;3541494;39;113247;-78
2021/05/31 11:37:32;;;;;;;;;3.00;3.00;;;;;;;;3538119;39;112182;-76
2021/05/31 11:39:59;;;;;;;;;2.00;2.00;;;;;;;;3537663;39;113335;-76
2021/05/31 11:42:25;;;;;;;;;3.00;3.00;;;;;;;;3538147;39;114064;-75
2021/05/31 11:44:53;;;;;;;;;2.25;2.25;;;;;;;;3537310;39;111969;-75
2021/05/31 11:47:23;;;;;;;;;3.50;2.75;;;;;;;;3537469;39;115056;-76
2021/05/31 11:49:49;;;;;;;;;3.25;2.00;;;;;;;;3536361;39;113928;-75
2021/05/31 11:52:16;;;;;;;;;3.75;3.00;;;;;;;;3534539;39;112210;-75
2021/05/31 11:54:43;;;;;;;;;3.00;3.00;;;;;;;;3538711;39;113541;-76
2021/05/31 11:57:10;;;;;;;;;7.50;7.50;;;;;;;;3542743;39;113808;-77
2021/05/31 11:59:37;;;;;;;;;5.00;5.00;;;;;;;;3539487;39;112818;-78
2021/05/31 12:02:07;;;;;;;;;4.00;4.00;;;;;;;;3536712;39;113943;-77
2021/05/31 12:04:33;;;;;;;;;3.75;3.75;;;;;;;;3538335;39;113743;-78
2021/05/31 12:07:00;;;;;;;;;4.00;4.00;;;;;;;;3536770;39;113049;-77
2021/05/31 12:09:26;;;;;;;;;4.00;4.00;;;;;;;;3535829;39;113799;-78
2021/05/31 12:11:52;;;;;;;;;6.00;3.75;;;;;;;;3537881;39;113178;-78
2021/05/31 12:14:21;;;;;;;;;7.25;5.00;;;;;;;;3537676;39;113725;-75
2021/05/31 12:16:57;;;;;;;;;10.00;7.25;;;;;;;;3537770;39;114315;-80
2021/05/31 12:19:25;;;;;;;;;3.00;3.00;;;;;;;;3539975;39;113460;-82
2021/05/31 12:21:51;;;;;;;;;5.00;5.00;;;;;;;;3539806;39;114142;-81
2021/05/31 12:24:23;;;;;;;;;4.00;4.00;;;;;;;;3538129;39;113016;-87
2021/05/31 12:26:50;;;;;;;;;11.50;10.00;;;;;;;;3540318;39;113325;-79
2021/05/31 12:29:16;;;;;;;;;6.25;5.00;;;;;;;;3536532;39;113871;-78
2021/05/31 12:31:42;;;;;;;;;9.50;8.00;;;;;;;;3536858;39;112339;-83
2021/05/31 12:34:09;;;;;;;;;21.75;13.50;;;;;;;;3538030;39;114198;-79
2021/05/31 12:36:38;;;;;;;;;7.00;5.00;;;;;;;;3535459;39;113913;-78
2021/05/31 12:39:05;;;;;;;;;7.75;5.00;;;;;;;;3538647;39;112112;-74
2021/05/31 12:41:31;;;;;;;;;3.25;3.25;;;;;;;;3537592;39;113815;-77
2021/05/31 12:44:04;;;;;;;;;6.00;5.00;;;;;;;;3538017;39;111918;-74
2021/05/31 12:46:36;;;;;;;;;4.50;4.00;;;;;;;;3537950;39;112863;-78
2021/05/31 12:49:03;;;;;;;;;3.00;3.00;;;;;;;;3537316;39;114353;-75
2021/05/31 12:51:29;;;;;;;;;5.75;4.50;;;;;;;;3537202;39;113082;-75
2021/05/31 12:54:00;;;;;;;;;8.25;7.00;;;;;;;;3537892;39;113230;-74
2021/05/31 12:56:29;;;;;;;;;3.33;3.33;;;;;;;;3538297;39;113687;-74
2021/05/31 12:59:02;;;;;;;;;3.33;3.33;;;;;;;;3538371;39;111898;-73
2021/05/31 13:01:29;;;;;;;;;3.00;3.00;;;;;;;;3541666;39;113103;-78
2021/05/31 13:03:56;;;;;;;;;3.67;3.33;;;;;;;;3538482;39;111853;-77
2021/05/31 13:06:30;;;;;;;;;3.00;3.00;;;;;;;;3539686;39;113753;-80
2021/05/31 13:08:57;;;;;;;;;4.00;2.33;;;;;;;;3536169;39;114039;-83
2021/05/31 13:11:24;;;;;;;;;4.67;3.33;;;;;;;;3539723;39;112067;-77
2021/05/31 13:13:50;;;;;;;;;2.00;2.00;;;;;;;;3538601;39;113401;-76
2021/05/31 13:16:26;;;;;;;;;2.00;2.00;;;;;;;;3536432;39;113536;-78
2021/05/31 13:18:53;;;;;;;;;6.00;4.00;;;;;;;;3538458;39;112073;-80
2021/05/31 13:21:19;;;;;;;;;2.33;2.33;;;;;;;;3538781;39;115598;-75
2021/05/31 13:23:46;;;;;;;;;4.00;2.00;;;;;;;;3540345;39;113922;-76
2021/05/31 13:26:13;;;;;;;;;3.00;2.33;;;;;;;;3537404;39;113399;-75
2021/05/31 13:28:42;;;;;;;;;2.00;2.00;;;;;;;;3537527;39;114213;-73
2021/05/31 13:31:08;;;;;;;;;3.00;3.00;;;;;;;;3537546;39;112463;-74
2021/05/31 13:33:41;;;;;;;;;4.00;4.00;;;;;;;;3537909;39;113671;-74
2021/05/31 13:36:11;;;;;;;;;3.00;3.00;;;;;;;;3536931;39;113976;-75
2021/05/31 13:38:37;;;;;;;;;3.33;3.33;;;;;;;;3537229;39;111917;-75
2021/05/31 13:41:03;;;;;;;;;2.67;2.67;;;;;;;;3539179;39;113340;-76
2021/05/31 13:43:32;;;;;;;;;2.67;2.67;;;;;;;;3537302;39;114016;-74
2021/05/31 13:45:59;;;;;;;;;5.33;5.00;;;;;;;;3541145;39;111975;-75
2021/05/31 13:48:26;;;;;;;;;3.00;3.00;;;;;;;;3537917;39;113832;-74
2021/05/31 13:50:55;;;;;;;;;4.00;4.00;;;;;;;;3538341;39;112845;-74
2021/05/31 13:53:21;;;;;;;;;3.67;3.67;;;;;;;;3537211;39;113173;-77
2021/05/31 13:55:47;;;;;;;;;4.00;4.00;;;;;;;;3537490;39;113835;-75
2021/05/31 13:58:15;;;;;;;;;4.00;3.00;;;;;;;;3538426;39;112027;-75
2021/05/31 14:00:41;;;;;;;;;5.33;5.00;;;;;;;;3537813;39;113573;-77
2021/05/31 14:03:09;;;;;;;;;3.00;3.00;;;;;;;;3535403;39;113747;-74
2021/05/31 14:05:35;;;;;;;;;4.00;4.00;;;;;;;;3538828;39;111827;-75
2021/05/31 14:08:03;;;;;;;;;4.67;3.33;;;;;;;;3539874;39;113588;-78
2021/05/31 14:10:29;;;;;;;;;3.00;3.00;;;;;;;;3538975;39;111890;-76
2021/05/31 14:12:56;;;;;;;;;6.33;4.33;;;;;;;;3540292;39;113820;-74
2021/05/31 14:15:22;;;;;;;;;3.00;3.00;;;;;;;;3539667;39;113925;-75
2021/05/31 14:17:48;;;;;;;;;6.00;5.00;;;;;;;;3538304;39;112245;-77
2021/05/31 14:20:17;;;;;;;;;6.67;5.67;;;;;;;;3538386;39;113362;-79
2021/05/31 14:22:44;;;;;;;;;5.33;4.67;;;;;;;;3539493;39;114667;-74
2021/05/31 14:25:11;;;;;;;;;5.33;5.33;;;;;;;;3539903;39;111939;-75
2021/05/31 14:27:37;;;;;;;;;4.00;4.00;;;;;;;;3541737;39;113951;-78
2021/05/31 14:30:04;;;;;;;;;4.00;4.00;;;;;;;;3539396;39;111840;-78
2021/05/31 14:32:30;;;;;;;;;3.67;3.00;;;;;;;;3539803;39;113666;-74
2021/05/31 14:34:56;;;;;;;;;6.33;5.00;;;;;;;;3538414;39;114251;-73
2021/05/31 14:37:24;;;;;;;;;4.00;4.00;;;;;;;;3539589;39;111951;-73